Time;durP1;ratioP1;P1;durP2;ratioP2;P2;SDS_P1;SDS_P2;PMS_P1;PMS_P2;Temp;Humidity;BMP_temperature;BMP_pressure;BME280_temperature;BME280_humidity;BME280_pressure;Samples;Min_cycle;Max_cycle;Signal;HPM_P1;HPM_P2
2023/09/17 00:17:43;;;;;;;12.03;9.70;;;11.90;99.90;;;;;;4823634;29;20659;-81
2023/09/17 00:48:31;;;;;;;15.00;11.57;;;11.60;99.90;;;;;;4903992;28;20578;-85
2023/09/17 01:13:39;;;;;;;13.50;11.23;;;11.60;99.90;;;;;;4774254;29;20560;-83
2023/09/17 01:43:40;;;;;;;14.60;11.07;;;11.30;99.90;;;;;;4614175;30;20284;-83
2023/09/17 02:08:58;;;;;;;14.17;11.53;;;11.20;99.90;;;;;;4658370;29;20515;-83
2023/09/17 02:34:22;;;;;;;15.17;11.97;;;10.80;99.90;;;;;;4588207;30;20386;-83
2023/09/17 02:59:43;;;;;;;15.90;12.27;;;10.80;99.90;;;;;;4678270;29;20557;-88
2023/09/17 03:20:34;;;;;;;20.37;12.77;;;10.90;99.90;;;;;;4810672;29;20510;-82
2023/09/17 03:50:24;;;;;;;15.87;11.23;;;10.90;99.90;;;;;;4766277;29;21105;-85
2023/09/17 04:16:23;;;;;;;17.17;12.60;;;10.80;99.90;;;;;;4693800;29;20204;-85
2023/09/17 04:41:38;;;;;;;16.97;12.70;;;10.80;99.90;;;;;;4770724;29;20214;-82
2023/09/17 05:12:05;;;;;;;18.73;13.30;;;11.60;99.90;;;;;;4774513;29;20209;-84
2023/09/17 05:37:30;;;;;;;14.20;11.97;;;12.80;99.90;;;;;;4720041;29;20265;-84
2023/09/17 06:48:37;;;;;;;14.57;11.90;;;15.90;99.90;;;;;;4953956;28;20216;-83
2023/09/17 07:08:45;;;;;;;15.20;11.80;;;16.50;99.90;;;;;;4785846;29;20315;-84
2023/09/17 07:29:07;;;;;;;12.10;10.57;;;17.00;99.90;;;;;;4687327;29;20222;-82
2023/09/17 07:54:14;;;;;;;14.37;11.40;;;17.70;99.90;;;;;;4682956;29;20200;-84
2023/09/17 08:09:39;;;;;;;14.73;12.13;;;18.00;99.90;;;;;;4793366;29;20546;-85
2023/09/17 08:39:44;;;;;;;11.80;10.50;;;18.90;99.90;;;;;;4641314;30;20707;-83
2023/09/17 09:00:24;;;;;;;11.33;10.13;;;19.20;99.90;;;;;;4677811;30;20254;-84
2023/09/17 09:30:43;;;;;;;11.57;9.50;;;20.10;99.90;;;;;;4656627;29;20260;-80
2023/09/17 09:56:04;;;;;;;12.48;8.82;;;20.70;99.90;;;;;;4610125;30;20243;-83
2023/09/17 10:36:10;;;;;;;10.07;8.93;;;21.50;98.70;;;;;;4732578;29;20592;-83
2023/09/17 10:57:10;;;;;;;8.95;8.05;;;21.90;94.70;;;;;;4690440;29;20226;-83
2023/09/17 11:42:19;;;;;;;8.45;7.63;;;22.80;91.80;;;;;;4670853;30;20725;-83
2023/09/17 12:07:27;;;;;;;7.88;7.25;;;23.50;88.30;;;;;;4856437;28;20217;-83
2023/09/17 12:32:48;;;;;;;6.68;6.13;;;24.20;84.80;;;;;;4893417;28;20395;-83
2023/09/17 12:58:41;;;;;;;8.43;6.88;;;24.80;83.30;;;;;;4856256;28;20522;-84
2023/09/17 13:28:56;;;;;;;8.00;6.35;;;25.70;82.20;;;;;;4739909;29;20233;-87
2023/09/17 13:54:31;;;;;;;7.45;6.70;;;25.60;80.00;;;;;;4717025;29;20945;-82
2023/09/17 14:14:22;;;;;;;6.55;5.95;;;26.40;79.10;;;;;;4649364;30;20561;-83
2023/09/17 14:40:01;;;;;;;7.93;6.75;;;25.40;82.40;;;;;;4677767;30;20210;-83
2023/09/17 15:00:30;;;;;;;7.70;7.00;;;24.90;83.60;;;;;;4771357;29;20204;-85
2023/09/17 15:25:47;;;;;;;7.20;6.45;;;24.90;85.20;;;;;;4884697;28;20293;-83
2023/09/17 15:45:31;;;;;;;7.85;7.05;;;24.50;87.20;;;;;;4703103;29;20266;-81
2023/09/17 16:10:52;;;;;;;8.43;7.47;;;24.00;90.30;;;;;;4715941;29;20586;-86
2023/09/17 16:31:23;;;;;;;9.60;7.85;;;23.80;91.30;;;;;;4803246;29;20818;-83
2023/09/17 16:52:10;;;;;;;9.02;8.15;;;23.10;99.90;;;;;;4762951;29;20269;-83
2023/09/17 16:56:31;;;;;;;9.00;8.10;;;22.80;99.90;;;;;;4728030;29;20260;-82
2023/09/17 17:17:28;;;;;;;9.88;8.90;;;21.70;99.90;;;;;;4751546;29;20207;-82
2023/09/17 17:37:31;;;;;;;10.38;9.25;;;21.30;99.90;;;;;;4644067;30;20213;-84
2023/09/17 18:03:02;;;;;;;15.25;8.30;;;21.70;99.90;;;;;;4711477;29;20226;-84
2023/09/17 18:27:48;;;;;;;11.20;9.83;;;19.50;99.90;;;;;;4577750;30;20823;-87
2023/09/17 18:48:04;;;;;;;10.93;9.27;;;19.20;99.90;;;;;;4599793;30;20507;-82
2023/09/17 19:08:42;;;;;;;10.60;8.63;;;18.80;99.90;;;;;;4682975;30;20739;-81
2023/09/17 19:29:24;;;;;;;10.57;8.57;;;18.70;99.90;;;;;;4771061;29;20246;-84
2023/09/17 19:49:15;;;;;;;8.27;7.57;;;18.60;99.90;;;;;;4702981;29;20471;-85
2023/09/17 20:19:58;;;;;;;14.83;11.43;;;17.90;99.90;;;;;;4713686;30;20211;-86
2023/09/17 20:44:41;;;;;;;17.40;15.53;;;17.80;99.90;;;;;;4749181;29;20216;-84
2023/09/17 21:10:28;;;;;;;15.97;14.10;;;18.00;99.90;;;;;;4705805;29;20985;-84
2023/09/17 21:36:00;;;;;;;18.17;13.83;;;17.70;99.90;;;;;;4719033;29;20630;-83
2023/09/17 22:11:31;;;;;;;17.87;15.03;;;17.30;99.90;;;;;;4728645;29;20206;-81
2023/09/17 22:42:01;;;;;;;19.63;14.87;;;17.30;99.90;;;;;;4770836;29;20243;-85
2023/09/17 23:12:17;;;;;;;19.70;16.03;;;17.00;99.90;;;;;;4740536;29;20268;-81
2023/09/17 23:42:39;;;;;;;18.80;15.53;;;16.90;99.90;;;;;;4750383;29;21860;-84
